Time;durP1;ratioP1;P1;durP2;ratioP2;P2;SDS_P1;SDS_P2;PMS_P1;PMS_P2;Temp;Humidity;BMP_temperature;BMP_pressure;BME280_temperature;BME280_humidity;BME280_pressure;Samples;Min_cycle;Max_cycle;Signal;HPM_P1;HPM_P2
2022/05/21 00:01:20;;;;;;;12.57;6.55;;;13.40;99.90;;;;;;5033074;28;20037;-84
2022/05/21 00:03:45;;;;;;;10.85;7.38;;;13.40;99.90;;;;;;5030971;28;20515;-85
2022/05/21 00:06:11;;;;;;;11.45;7.25;;;13.30;99.90;;;;;;5014804;28;20408;-85
2022/05/21 00:08:37;;;;;;;11.05;7.45;;;13.30;99.90;;;;;;5015086;28;20033;-85
2022/05/21 00:11:03;;;;;;;10.63;6.75;;;13.30;99.90;;;;;;5014634;28;20675;-85
2022/05/21 00:13:57;;;;;;;12.18;6.90;;;13.20;99.90;;;;;;5015217;28;20078;-85
2022/05/21 00:16:23;;;;;;;14.25;7.97;;;13.20;99.90;;;;;;5014889;28;20036;-84
2022/05/21 00:18:49;;;;;;;11.48;7.30;;;13.20;99.90;;;;;;5031563;28;20029;-85
2022/05/21 00:21:15;;;;;;;13.40;9.35;;;13.10;99.90;;;;;;5015145;28;20040;-85
2022/05/21 00:23:42;;;;;;;11.63;8.43;;;13.10;99.90;;;;;;5014453;28;20029;-84
2022/05/21 00:26:11;;;;;;;13.07;8.43;;;13.10;99.90;;;;;;5014606;28;20037;-85
2022/05/21 00:29:26;;;;;;;9.38;7.57;;;13.00;99.90;;;;;;5014073;28;20042;-85
2022/05/21 00:31:51;;;;;;;11.75;8.32;;;13.00;99.90;;;;;;5014162;28;20139;-85
2022/05/21 00:34:17;;;;;;;11.15;7.32;;;13.00;99.90;;;;;;5030539;28;20642;-86
2022/05/21 00:36:43;;;;;;;10.82;8.30;;;12.90;99.90;;;;;;5014279;28;20040;-85
2022/05/21 00:39:09;;;;;;;12.57;8.88;;;12.90;99.90;;;;;;5030479;28;20072;-85
2022/05/21 00:41:34;;;;;;;14.15;9.20;;;12.90;99.90;;;;;;5014297;28;20685;-85
2022/05/21 00:44:02;;;;;;;12.38;7.90;;;12.80;99.90;;;;;;5014053;28;20037;-85
2022/05/21 00:46:38;;;;;;;12.55;8.98;;;12.70;99.90;;;;;;5014502;28;20033;-85
2022/05/21 00:49:04;;;;;;;11.90;8.98;;;12.60;99.90;;;;;;5014507;28;20045;-85
2022/05/21 00:51:34;;;;;;;13.30;9.13;;;12.50;99.90;;;;;;5033416;28;20037;-84
2022/05/21 00:54:02;;;;;;;12.50;8.80;;;12.50;99.90;;;;;;5017940;28;20040;-85
2022/05/21 00:56:31;;;;;;;11.77;8.35;;;12.60;99.90;;;;;;5017835;28;20488;-84
2022/05/21 01:01:48;;;;;;;13.00;8.35;;;12.60;99.90;;;;;;5034475;28;20030;-85
2022/05/21 01:04:14;;;;;;;15.07;8.57;;;12.60;99.90;;;;;;5017433;28;20632;-85
2022/05/21 01:06:40;;;;;;;11.05;7.38;;;12.60;99.90;;;;;;5017607;28;20087;-85
2022/05/21 01:09:07;;;;;;;21.02;7.57;;;12.60;99.90;;;;;;5017380;28;20041;-85
2022/05/21 01:11:34;;;;;;;8.65;6.65;;;12.60;99.90;;;;;;5017698;28;20126;-84
2022/05/21 01:14:03;;;;;;;11.40;7.30;;;12.70;99.90;;;;;;5017516;28;20518;-84
2022/05/21 01:16:29;;;;;;;13.73;7.82;;;12.80;99.90;;;;;;5033215;28;20421;-84
2022/05/21 01:18:56;;;;;;;10.65;7.53;;;12.80;99.90;;;;;;5017088;28;20033;-84
2022/05/21 01:21:23;;;;;;;9.05;7.07;;;12.80;99.90;;;;;;5034668;28;20116;-85
2022/05/21 01:23:49;;;;;;;13.35;7.20;;;12.70;99.90;;;;;;5016557;28;20033;-85
2022/05/21 01:26:20;;;;;;;10.15;7.55;;;12.70;99.90;;;;;;5017308;28;20384;-85
2022/05/21 01:28:47;;;;;;;8.18;6.90;;;12.60;99.90;;;;;;5017233;28;20044;-85
2022/05/21 01:31:13;;;;;;;9.63;7.00;;;12.60;99.90;;;;;;5034191;28;20041;-85
2022/05/21 01:37:26;;;;;;;11.57;6.85;;;12.50;99.90;;;;;;5035435;28;20091;-85
2022/05/21 01:39:52;;;;;;;13.98;7.22;;;12.30;99.90;;;;;;5033276;28;20631;-85
2022/05/21 01:42:17;;;;;;;10.80;7.68;;;12.30;99.90;;;;;;5017022;28;20032;-84
2022/05/21 01:44:46;;;;;;;12.07;7.70;;;12.20;99.90;;;;;;5034568;28;20470;-84
2022/05/21 01:47:14;;;;;;;11.00;7.47;;;12.10;99.90;;;;;;5016323;28;20047;-85
2022/05/21 01:49:42;;;;;;;9.73;7.30;;;12.10;99.90;;;;;;5017078;28;20029;-84
2022/05/21 01:52:09;;;;;;;8.68;6.97;;;12.10;99.90;;;;;;5033470;28;20029;-85
2022/05/21 01:54:35;;;;;;;9.60;7.53;;;12.10;99.90;;;;;;5034560;28;20384;-84
2022/05/21 01:57:02;;;;;;;9.25;7.25;;;12.10;99.90;;;;;;5017283;28;20033;-85
2022/05/21 01:59:28;;;;;;;9.70;7.13;;;12.20;99.90;;;;;;5016416;28;20036;-85
2022/05/21 02:01:54;;;;;;;9.85;6.70;;;12.20;99.90;;;;;;5015718;28;20743;-85
2022/05/21 02:04:20;;;;;;;12.05;5.90;;;12.30;99.90;;;;;;5016068;28;20135;-85
2022/05/21 02:06:47;;;;;;;8.23;6.40;;;12.20;99.90;;;;;;5016190;28;20556;-85
2022/05/21 02:09:13;;;;;;;7.35;5.95;;;12.20;99.90;;;;;;5032954;28;20416;-84
2022/05/21 02:11:39;;;;;;;10.48;6.45;;;12.10;99.90;;;;;;5032887;28;20040;-85
2022/05/21 02:14:07;;;;;;;8.52;5.75;;;12.00;99.90;;;;;;5032849;28;20033;-84
2022/05/21 02:16:36;;;;;;;10.07;5.50;;;12.10;99.90;;;;;;5016063;28;20060;-85
2022/05/21 02:19:04;;;;;;;7.75;5.22;;;12.00;99.90;;;;;;5015672;28;20094;-85
2022/05/21 02:21:31;;;;;;;11.82;6.32;;;11.90;99.90;;;;;;5031895;28;20519;-84
2022/05/21 02:23:57;;;;;;;8.90;5.80;;;11.80;99.90;;;;;;5031877;28;20090;-84
2022/05/21 02:26:23;;;;;;;9.73;4.82;;;11.70;99.90;;;;;;5032659;28;20033;-85
2022/05/21 02:28:49;;;;;;;9.32;6.25;;;11.50;99.90;;;;;;5033806;28;20030;-84
2022/05/21 02:31:15;;;;;;;13.00;6.35;;;11.40;99.90;;;;;;5032463;28;20493;-87
2022/05/21 02:33:42;;;;;;;8.73;6.40;;;11.20;99.90;;;;;;5016156;28;20065;-83
2022/05/21 02:36:08;;;;;;;9.10;5.68;;;11.10;99.90;;;;;;5015773;28;20029;-84
2022/05/21 02:41:18;;;;;;;9.90;5.90;;;10.90;99.90;;;;;;5032340;28;20029;-85
2022/05/21 02:43:46;;;;;;;8.18;5.88;;;10.80;99.90;;;;;;5032378;28;20018;-85
2022/05/21 02:46:13;;;;;;;10.82;6.28;;;10.70;99.90;;;;;;5016159;28;20496;-84
2022/05/21 02:48:39;;;;;;;9.75;6.75;;;10.70;99.90;;;;;;5015895;28;20083;-84
2022/05/21 02:51:06;;;;;;;7.30;5.53;;;10.60;99.90;;;;;;5015556;28;20025;-85
2022/05/21 02:53:31;;;;;;;8.25;6.22;;;10.50;99.90;;;;;;5015232;28;20848;-84
2022/05/21 02:56:03;;;;;;;12.90;6.90;;;10.40;99.90;;;;;;5015397;28;20064;-84
2022/05/21 02:58:29;;;;;;;8.32;6.18;;;10.40;99.90;;;;;;5015809;28;20033;-84
2022/05/21 03:00:55;;;;;;;11.50;6.63;;;10.30;99.90;;;;;;5015461;28;20040;-84
2022/05/21 03:03:20;;;;;;;10.60;6.30;;;10.20;99.90;;;;;;5015681;28;20044;-85
2022/05/21 03:05:46;;;;;;;10.68;6.43;;;10.10;99.90;;;;;;5015867;28;20022;-84
2022/05/21 03:10:56;;;;;;;8.95;6.43;;;10.10;99.90;;;;;;5031510;28;20044;-84
2022/05/21 03:13:22;;;;;;;8.07;6.22;;;10.10;99.90;;;;;;5014982;28;20041;-84
2022/05/21 03:15:48;;;;;;;9.75;7.65;;;10.10;99.90;;;;;;5015189;28;20044;-84
2022/05/21 03:18:15;;;;;;;12.50;7.35;;;10.00;99.90;;;;;;5031598;28;20029;-84
2022/05/21 03:20:42;;;;;;;17.58;7.72;;;10.00;99.90;;;;;;5031624;28;20037;-84
2022/05/21 03:26:55;;;;;;;10.15;7.03;;;9.90;99.90;;;;;;5033742;28;20037;-84
2022/05/21 03:29:21;;;;;;;13.18;7.63;;;9.80;99.90;;;;;;5031132;28;20052;-85
2022/05/21 03:31:47;;;;;;;13.05;8.02;;;9.70;99.90;;;;;;5031771;28;20028;-85
2022/05/21 03:34:13;;;;;;;10.10;7.90;;;9.70;99.90;;;;;;5015473;28;20124;-82
2022/05/21 03:36:41;;;;;;;12.98;7.90;;;9.70;99.90;;;;;;5015321;28;20025;-82
2022/05/21 03:39:06;;;;;;;12.38;8.07;;;9.70;99.90;;;;;;5032639;28;20422;-82
2022/05/21 03:41:33;;;;;;;14.32;7.85;;;9.60;99.90;;;;;;5030791;28;20485;-82
2022/05/21 03:44:00;;;;;;;12.30;7.80;;;9.60;99.90;;;;;;5014780;28;20523;-82
2022/05/21 03:46:27;;;;;;;14.50;8.00;;;9.70;99.90;;;;;;5031292;28;20040;-82
2022/05/21 03:48:52;;;;;;;195.30;86.22;;;9.70;99.90;;;;;;5014719;28;20132;-82
2022/05/21 03:51:18;;;;;;;37.95;18.98;;;9.70;99.90;;;;;;5032516;28;20108;-82
2022/05/21 03:53:44;;;;;;;18.00;10.85;;;9.70;99.90;;;;;;5032279;28;20033;-82
2022/05/21 03:56:11;;;;;;;17.38;8.10;;;9.80;99.90;;;;;;5031017;28;20025;-82
2022/05/21 03:58:37;;;;;;;13.65;8.48;;;9.80;99.90;;;;;;5014881;28;20022;-82
2022/05/21 04:01:02;;;;;;;14.02;7.63;;;9.80;99.90;;;;;;5014809;28;20036;-82
2022/05/21 04:03:28;;;;;;;15.52;8.20;;;9.80;99.90;;;;;;5014881;28;20030;-82
2022/05/21 04:05:56;;;;;;;12.30;8.65;;;9.80;99.90;;;;;;5031280;28;20033;-82
2022/05/21 04:08:22;;;;;;;12.18;8.63;;;9.90;99.90;;;;;;5031030;28;20037;-82
2022/05/21 04:10:48;;;;;;;13.43;7.78;;;10.00;99.90;;;;;;5014649;28;20030;-82
2022/05/21 04:13:15;;;;;;;13.35;9.30;;;10.00;99.90;;;;;;5014699;28;20037;-82
2022/05/21 04:15:42;;;;;;;13.88;9.35;;;10.00;99.90;;;;;;5014951;28;20790;-82
2022/05/21 04:18:08;;;;;;;14.77;9.27;;;10.10;99.90;;;;;;5014805;28;20022;-81
2022/05/21 04:20:35;;;;;;;14.27;9.38;;;10.10;99.90;;;;;;5030940;28;20088;-82
2022/05/21 04:23:01;;;;;;;12.00;8.68;;;10.10;99.90;;;;;;5031930;28;20048;-82
2022/05/21 04:25:26;;;;;;;14.25;9.00;;;10.10;99.90;;;;;;5015438;28;20468;-82
2022/05/21 04:27:53;;;;;;;16.40;10.45;;;10.10;99.90;;;;;;5034423;28;20048;-82
2022/05/21 04:30:25;;;;;;;16.30;10.93;;;10.00;99.90;;;;;;5018104;28;20516;-82
2022/05/21 04:32:52;;;;;;;16.48;10.57;;;10.20;99.90;;;;;;5018359;28;20116;-83
2022/05/21 04:35:19;;;;;;;15.60;9.52;;;10.20;99.90;;;;;;5017859;28;20041;-82
2022/05/21 04:37:46;;;;;;;16.10;8.75;;;10.20;99.90;;;;;;5018327;28;20029;-81
2022/05/21 04:40:17;;;;;;;12.52;7.72;;;10.20;99.90;;;;;;5001942;28;20037;-81
2022/05/21 04:42:43;;;;;;;17.15;9.10;;;10.30;99.90;;;;;;5035034;28;20034;-82
2022/05/21 04:45:09;;;;;;;12.55;8.85;;;10.30;99.90;;;;;;5036505;28;20033;-82
2022/05/21 04:47:35;;;;;;;13.48;8.57;;;10.30;99.90;;;;;;5018448;28;20547;-82
2022/05/21 04:50:02;;;;;;;17.02;8.43;;;10.30;99.90;;;;;;5034428;28;20164;-82
2022/05/21 04:52:28;;;;;;;14.93;7.85;;;10.40;99.90;;;;;;5035480;28;20036;-82
2022/05/21 04:54:55;;;;;;;11.80;7.85;;;10.50;99.90;;;;;;5035683;28;20079;-82
2022/05/21 04:57:21;;;;;;;11.68;7.00;;;10.50;99.90;;;;;;5034060;28;20029;-82
2022/05/21 04:59:47;;;;;;;11.52;7.22;;;10.60;99.90;;;;;;5033901;28;20124;-82
2022/05/21 05:02:13;;;;;;;12.40;7.20;;;10.50;99.90;;;;;;5018080;28;20029;-81
2022/05/21 05:04:39;;;;;;;10.95;6.18;;;10.60;99.90;;;;;;5034231;28;20033;-82
2022/05/21 05:07:09;;;;;;;11.48;6.20;;;10.60;99.90;;;;;;5034568;28;20033;-81
2022/05/21 05:10:07;;;;;;;10.65;6.95;;;10.60;99.90;;;;;;5033774;28;20025;-82
2022/05/21 05:12:33;;;;;;;12.30;6.55;;;10.60;99.90;;;;;;5034968;28;20472;-82
2022/05/21 05:15:00;;;;;;;10.55;6.25;;;10.70;99.90;;;;;;5017099;28;20060;-82
2022/05/21 05:17:30;;;;;;;11.70;6.47;;;10.80;99.90;;;;;;5017258;28;20022;-82
2022/05/21 05:19:59;;;;;;;9.65;5.93;;;10.80;99.90;;;;;;5017145;28;20041;-81
2022/05/21 05:22:25;;;;;;;16.17;6.20;;;10.80;99.90;;;;;;5016564;28;20040;-81
2022/05/21 05:24:50;;;;;;;8.05;5.93;;;10.90;99.90;;;;;;5033776;28;20025;-82
2022/05/21 05:27:17;;;;;;;9.65;6.53;;;11.00;99.90;;;;;;5017388;28;20087;-82
2022/05/21 05:29:43;;;;;;;8.85;6.30;;;11.00;99.90;;;;;;5033773;28;20112;-82
2022/05/21 05:32:09;;;;;;;11.50;5.80;;;11.00;99.90;;;;;;5016861;28;20611;-82
2022/05/21 05:34:59;;;;;;;9.27;5.55;;;11.00;99.90;;;;;;5034051;28;20510;-82
2022/05/21 05:37:49;;;;;;;7.68;5.78;;;11.10;99.90;;;;;;5033744;28;20112;-82
2022/05/21 05:40:18;;;;;;;10.07;6.00;;;11.30;99.90;;;;;;5033701;28;20115;-82
2022/05/21 05:42:44;;;;;;;10.27;5.82;;;11.70;99.90;;;;;;5016920;28;20025;-82
2022/05/21 05:45:14;;;;;;;10.93;5.60;;;11.90;99.90;;;;;;5017162;28;20661;-82
2022/05/21 05:47:40;;;;;;;7.38;5.18;;;11.90;99.90;;;;;;5017233;28;20037;-82
2022/05/21 05:50:07;;;;;;;9.25;6.43;;;12.00;99.90;;;;;;5033728;28;20393;-82
2022/05/21 05:52:33;;;;;;;8.73;5.97;;;12.00;99.90;;;;;;5033940;28;20041;-82
2022/05/21 05:54:59;;;;;;;10.07;6.20;;;12.00;99.90;;;;;;5000439;28;20048;-82
2022/05/21 06:01:11;;;;;;;7.22;5.03;;;12.30;99.90;;;;;;5034768;28;20052;-82
2022/05/21 06:03:37;;;;;;;6.65;5.10;;;12.30;99.90;;;;;;5016775;28;20026;-82
2022/05/21 06:06:04;;;;;;;6.70;4.70;;;12.30;99.90;;;;;;5032525;28;20067;-82
2022/05/21 06:08:30;;;;;;;10.07;4.93;;;12.40;99.90;;;;;;5000373;28;20038;-82
2022/05/21 06:10:55;;;;;;;7.88;5.25;;;12.50;99.90;;;;;;5016448;28;20037;-82
2022/05/21 06:13:21;;;;;;;9.45;4.13;;;12.70;99.90;;;;;;5016946;28;20128;-82
2022/05/21 06:15:56;;;;;;;7.53;4.10;;;13.00;99.90;;;;;;5016462;28;20021;-81
2022/05/21 06:18:22;;;;;;;10.45;3.50;;;13.10;99.90;;;;;;5016452;28;20048;-82
2022/05/21 06:20:51;;;;;;;5.32;3.63;;;13.20;99.90;;;;;;5032540;28;20026;-82
2022/05/21 06:23:18;;;;;;;9.70;4.22;;;13.20;99.90;;;;;;5016217;28;20034;-82
2022/05/21 06:25:44;;;;;;;4.32;3.30;;;13.20;99.90;;;;;;5032801;28;20082;-82
2022/05/21 06:28:09;;;;;;;5.53;4.03;;;13.30;99.90;;;;;;5015991;28;20136;-82
2022/05/21 06:30:37;;;;;;;6.88;3.70;;;13.50;99.90;;;;;;5033622;28;20057;-83
2022/05/21 06:33:20;;;;;;;6.43;3.10;;;13.70;99.90;;;;;;5032983;28;20034;-83
2022/05/21 06:35:47;;;;;;;7.72;3.88;;;14.00;99.90;;;;;;5032835;28;20076;-83
2022/05/21 06:38:13;;;;;;;5.65;3.50;;;14.10;99.90;;;;;;5032414;28;20048;-82
2022/05/21 06:40:40;;;;;;;4.43;3.42;;;13.80;99.90;;;;;;5015878;28;20026;-82
2022/05/21 06:43:06;;;;;;;7.68;3.30;;;14.00;99.90;;;;;;5032443;28;20017;-82
2022/05/21 06:45:33;;;;;;;5.43;2.28;;;14.00;99.90;;;;;;5032165;28;20163;-82
2022/05/21 06:48:07;;;;;;;4.20;2.42;;;14.10;99.90;;;;;;5015126;28;20025;-83
2022/05/21 06:50:35;;;;;;;8.77;2.50;;;14.10;99.90;;;;;;5031934;28;20493;-83
2022/05/21 06:53:00;;;;;;;6.55;2.50;;;14.20;99.90;;;;;;5015535;28;20092;-82
2022/05/21 06:55:26;;;;;;;6.00;2.10;;;14.20;99.90;;;;;;5015084;28;20444;-83
2022/05/21 06:57:52;;;;;;;7.43;2.70;;;14.30;99.90;;;;;;5032266;28;20113;-82
2022/05/21 07:00:23;;;;;;;5.57;2.83;;;14.20;99.90;;;;;;5031571;28;20041;-82
2022/05/21 07:02:50;;;;;;;7.68;3.10;;;14.20;99.90;;;;;;5015938;28;20037;-83
2022/05/21 07:08:03;;;;;;;3.40;2.78;;;14.20;99.90;;;;;;5033024;28;20088;-83
2022/05/21 07:10:29;;;;;;;4.72;2.45;;;14.50;99.90;;;;;;5031771;28;20055;-83
2022/05/21 07:12:56;;;;;;;4.43;2.00;;;14.60;99.90;;;;;;5015338;28;20037;-82
2022/05/21 07:15:22;;;;;;;13.48;2.85;;;14.50;99.90;;;;;;5032892;28;20094;-82
2022/05/21 07:17:49;;;;;;;4.65;2.67;;;14.60;99.90;;;;;;5032243;28;20439;-83
2022/05/21 07:20:21;;;;;;;3.20;2.40;;;14.60;99.90;;;;;;5031943;28;20046;-83
2022/05/21 07:22:48;;;;;;;3.78;2.50;;;14.40;99.90;;;;;;5015249;28;20060;-83
2022/05/21 07:25:18;;;;;;;4.85;2.78;;;14.00;99.90;;;;;;5015463;28;20809;-83
2022/05/21 07:27:45;;;;;;;4.32;2.92;;;13.80;99.90;;;;;;5031662;28;20029;-82
2022/05/21 07:30:12;;;;;;;4.85;2.78;;;13.90;99.90;;;;;;5014968;28;20043;-83
2022/05/21 07:32:37;;;;;;;8.73;2.80;;;14.20;99.90;;;;;;5015281;28;20029;-82
2022/05/21 07:35:11;;;;;;;5.38;3.55;;;14.40;99.90;;;;;;5014988;28;20041;-82
2022/05/21 07:37:37;;;;;;;9.27;3.05;;;14.60;99.90;;;;;;5014712;28;20431;-82
2022/05/21 07:40:05;;;;;;;9.00;2.42;;;14.70;99.90;;;;;;5031236;28;20026;-82
2022/05/21 07:42:32;;;;;;;4.32;2.47;;;14.70;99.90;;;;;;5014461;28;20497;-82
2022/05/21 07:44:58;;;;;;;11.10;3.00;;;14.80;99.90;;;;;;5030884;28;20071;-82
2022/05/21 07:47:24;;;;;;;2.25;2.05;;;14.50;99.90;;;;;;5031196;28;20087;-82
2022/05/21 07:49:52;;;;;;;4.45;2.60;;;14.30;99.90;;;;;;5031056;28;20117;-82
2022/05/21 07:52:19;;;;;;;9.35;3.15;;;14.50;99.90;;;;;;5014444;28;20056;-82
2022/05/21 07:54:45;;;;;;;6.68;2.60;;;14.80;99.90;;;;;;5031668;28;20429;-82
2022/05/21 07:57:11;;;;;;;9.38;3.17;;;14.70;99.90;;;;;;5015108;28;20030;-82
2022/05/21 08:03:24;;;;;;;7.85;2.65;;;14.40;99.90;;;;;;5036793;28;20040;-82
2022/05/21 08:05:50;;;;;;;9.30;3.65;;;14.80;99.90;;;;;;5018562;28;20582;-82
2022/05/21 08:08:16;;;;;;;5.82;2.10;;;14.90;99.90;;;;;;5034639;28;20103;-82
2022/05/21 08:10:45;;;;;;;8.18;1.98;;;15.20;99.90;;;;;;5018582;28;20477;-82
2022/05/21 08:13:12;;;;;;;6.07;1.90;;;16.80;99.90;;;;;;5035893;28;20030;-83
2022/05/21 08:15:39;;;;;;;8.27;2.28;;;17.00;99.90;;;;;;5036560;28;20042;-83
2022/05/21 08:18:05;;;;;;;5.65;2.22;;;16.50;99.90;;;;;;5018136;28;20037;-83
2022/05/21 08:20:37;;;;;;;4.28;1.83;;;16.00;99.90;;;;;;5035130;28;20033;-82
2022/05/21 08:28:32;;;;;;;5.28;2.08;;;15.60;99.90;;;;;;5035037;28;20060;-83
2022/05/21 08:30:59;;;;;;;4.93;1.73;;;15.80;99.90;;;;;;5018154;28;20036;-82
2022/05/21 08:33:25;;;;;;;8.25;2.33;;;15.60;99.90;;;;;;5018094;28;20729;-83
2022/05/21 08:35:51;;;;;;;7.20;2.20;;;15.40;99.90;;;;;;5034442;28;20136;-82
2022/05/21 08:38:17;;;;;;;7.38;2.22;;;15.30;99.90;;;;;;5018355;28;20061;-82
2022/05/21 08:40:55;;;;;;;7.63;2.13;;;15.50;99.90;;;;;;5034347;28;20029;-83
2022/05/21 08:43:47;;;;;;;5.75;1.88;;;15.30;99.90;;;;;;5018599;28;20021;-82
2022/05/21 08:46:36;;;;;;;3.75;2.20;;;15.50;99.90;;;;;;5034230;28;20025;-81
2022/05/21 08:49:13;;;;;;;8.63;2.40;;;15.60;99.90;;;;;;5017638;28;20552;-81
2022/05/21 08:51:55;;;;;;;4.68;2.08;;;16.00;99.90;;;;;;5034241;28;20524;-82
2022/05/21 08:54:29;;;;;;;3.85;2.40;;;16.00;99.90;;;;;;5034241;28;20038;-82
2022/05/21 08:56:56;;;;;;;4.20;2.30;;;16.00;99.90;;;;;;5034030;28;20037;-82
2022/05/21 08:59:37;;;;;;;7.05;2.25;;;16.20;99.90;;;;;;5034318;28;20021;-82
2022/05/21 09:02:10;;;;;;;3.10;1.92;;;17.10;99.90;;;;;;5034294;28;20105;-82
2022/05/21 09:04:36;;;;;;;5.93;2.00;;;17.90;99.90;;;;;;5034053;28;20801;-82
2022/05/21 09:07:22;;;;;;;5.95;1.73;;;18.70;99.90;;;;;;5017391;28;20037;-82
2022/05/21 09:09:59;;;;;;;8.15;2.10;;;20.10;99.90;;;;;;5017344;28;20035;-82
2022/05/21 09:12:37;;;;;;;8.02;2.33;;;19.70;99.90;;;;;;5033565;28;20389;-83
2022/05/21 09:15:04;;;;;;;9.15;2.03;;;18.90;99.90;;;;;;5035293;28;20021;-83
2022/05/21 09:17:30;;;;;;;7.43;1.77;;;19.20;99.90;;;;;;5017439;28;20377;-82
2022/05/21 09:20:04;;;;;;;5.38;2.08;;;19.50;99.90;;;;;;5017037;28;20813;-83
2022/05/21 09:22:31;;;;;;;3.25;1.52;;;19.50;99.90;;;;;;5017099;28;20033;-81
2022/05/21 09:24:59;;;;;;;5.00;1.70;;;19.50;99.90;;;;;;5033549;28;20068;-82
2022/05/21 09:27:32;;;;;;;5.13;1.73;;;19.20;99.90;;;;;;5017113;28;20058;-82
2022/05/21 09:30:26;;;;;;;6.47;2.30;;;18.50;99.90;;;;;;5017138;28;20032;-82
2022/05/21 09:32:58;;;;;;;6.15;2.10;;;18.30;99.90;;;;;;5033735;28;20135;-82
2022/05/21 09:35:31;;;;;;;5.25;2.10;;;18.30;99.90;;;;;;5033702;28;20030;-83
2022/05/21 09:38:14;;;;;;;7.10;2.13;;;18.50;99.90;;;;;;5017402;28;20121;-82
2022/05/21 09:40:41;;;;;;;6.65;2.30;;;18.40;99.90;;;;;;5017081;28;20030;-82
2022/05/21 09:46:26;;;;;;;6.13;2.20;;;19.70;99.90;;;;;;5034545;28;20061;-82
2022/05/21 09:49:11;;;;;;;3.58;1.75;;;20.00;99.90;;;;;;5017002;28;20065;-83
2022/05/21 09:51:38;;;;;;;6.82;2.00;;;19.10;99.90;;;;;;5033581;28;20064;-83
2022/05/21 09:54:34;;;;;;;3.85;2.05;;;18.10;99.90;;;;;;5016470;28;20034;-83
2022/05/21 09:57:00;;;;;;;5.78;1.98;;;17.40;99.90;;;;;;5029121;28;20033;-83
2022/05/21 09:59:29;;;;;;;4.38;2.08;;;17.00;99.90;;;;;;5016629;28;20479;-83
2022/05/21 10:01:59;;;;;;;4.13;2.10;;;16.60;99.90;;;;;;5033080;28;20032;-82
2022/05/21 10:04:50;;;;;;;5.32;2.00;;;16.40;99.90;;;;;;5033354;28;20056;-82
2022/05/21 10:13:07;;;;;;;11.48;5.55;;;17.30;99.90;;;;;;5033379;28;20489;-83
2022/05/21 10:15:43;;;;;;;8.32;3.45;;;16.90;99.90;;;;;;5032523;28;20036;-82
2022/05/21 10:18:52;;;;;;;5.97;2.75;;;16.60;99.90;;;;;;5016491;28;20037;-82
2022/05/21 10:21:35;;;;;;;5.80;2.92;;;16.60;99.90;;;;;;5015726;28;20128;-82
2022/05/21 10:24:45;;;;;;;6.30;2.33;;;16.80;99.90;;;;;;5032420;28;20026;-82
2022/05/21 10:27:47;;;;;;;4.00;2.10;;;17.70;99.90;;;;;;5011468;28;20037;-82
2022/05/21 10:30:22;;;;;;;6.43;2.03;;;18.70;99.90;;;;;;5032292;28;20022;-82
2022/05/21 10:33:02;;;;;;;6.93;2.40;;;19.30;99.90;;;;;;5016711;28;20029;-82
2022/05/21 10:35:49;;;;;;;6.93;2.30;;;19.10;99.90;;;;;;5032551;28;20033;-83
2022/05/21 10:38:31;;;;;;;4.20;2.30;;;18.60;99.90;;;;;;5032521;28;20041;-83
2022/05/21 10:41:06;;;;;;;7.50;3.00;;;17.90;99.90;;;;;;5015451;28;20397;-82
2022/05/21 10:43:40;;;;;;;5.13;2.72;;;17.70;99.90;;;;;;5015961;28;20120;-82
2022/05/21 10:46:30;;;;;;;4.80;2.90;;;17.90;99.90;;;;;;5015789;28;20432;-82
2022/05/21 10:49:30;;;;;;;4.35;2.80;;;17.40;99.90;;;;;;5016176;28;20072;-82
2022/05/21 10:51:59;;;;;;;5.60;2.78;;;17.30;99.90;;;;;;5015504;28;20041;-83
2022/05/21 10:54:31;;;;;;;8.38;2.30;;;18.00;99.90;;;;;;5031951;28;20037;-82
2022/05/21 10:57:46;;;;;;;6.70;2.90;;;18.90;99.90;;;;;;5015501;28;20067;-82
2022/05/21 11:00:50;;;;;;;5.93;2.53;;;19.30;99.90;;;;;;5015260;28;20083;-83
2022/05/21 11:03:49;;;;;;;5.22;2.70;;;19.10;99.90;;;;;;5015574;28;20032;-83
2022/05/21 11:06:17;;;;;;;7.85;2.70;;;18.40;99.90;;;;;;5033494;28;20108;-83
2022/05/21 11:09:18;;;;;;;8.50;3.92;;;18.20;99.90;;;;;;5032308;28;20034;-82
2022/05/21 11:12:13;;;;;;;8.00;3.13;;;18.30;99.90;;;;;;5033358;28;20025;-82
2022/05/21 11:15:15;;;;;;;10.25;5.65;;;18.90;99.90;;;;;;5031784;28;20116;-83
2022/05/21 11:17:59;;;;;;;8.63;2.92;;;19.40;99.90;;;;;;5015282;28;20112;-83
2022/05/21 11:20:31;;;;;;;6.75;3.10;;;19.50;99.90;;;;;;5015314;28;20026;-82
2022/05/21 11:23:25;;;;;;;3.17;2.47;;;19.40;99.90;;;;;;5015087;28;20627;-83
2022/05/21 11:26:02;;;;;;;12.00;2.72;;;19.30;99.90;;;;;;5031864;28;20041;-82
2022/05/21 11:28:28;;;;;;;3.75;2.30;;;19.40;99.90;;;;;;5015565;28;20123;-83
2022/05/21 11:31:17;;;;;;;4.68;2.45;;;19.90;99.90;;;;;;5015397;28;20041;-83
2022/05/21 11:39:19;;;;;;;9.05;2.50;;;20.80;99.90;;;;;;5031304;28;20053;-82
2022/05/21 11:42:08;;;;;;;11.00;2.60;;;20.80;99.90;;;;;;5014872;28;20026;-83
2022/05/21 11:44:59;;;;;;;4.47;2.35;;;20.90;99.90;;;;;;5031945;28;20495;-82
2022/05/21 11:47:46;;;;;;;6.03;2.53;;;20.90;99.90;;;;;;5015055;28;20440;-82
2022/05/21 11:50:17;;;;;;;6.03;2.20;;;21.20;99.90;;;;;;5032669;28;20037;-82
2022/05/21 11:53:08;;;;;;;7.13;2.10;;;21.70;99.90;;;;;;5014483;28;20078;-83
2022/05/21 11:55:58;;;;;;;5.72;2.03;;;21.70;99.90;;;;;;5031499;28;20499;-82
2022/05/21 11:59:07;;;;;;;3.50;2.05;;;21.50;99.90;;;;;;5031278;28;20059;-83
2022/05/21 12:01:49;;;;;;;5.28;1.98;;;20.90;99.90;;;;;;5014784;28;20056;-82
2022/05/21 12:04:44;;;;;;;5.78;2.28;;;20.50;99.90;;;;;;5014141;28;20041;-84
2022/05/21 12:11:13;;;;;;;9.18;2.30;;;19.90;99.90;;;;;;5032079;28;20110;-82
2022/05/21 12:14:09;;;;;;;4.38;2.17;;;19.90;99.90;;;;;;5014454;28;20036;-83
2022/05/21 12:16:35;;;;;;;2.47;1.60;;;20.60;99.90;;;;;;5030904;28;20044;-83
2022/05/21 12:19:02;;;;;;;6.75;2.30;;;20.70;99.90;;;;;;5014580;28;20112;-83
2022/05/21 12:21:28;;;;;;;4.13;1.85;;;20.70;99.90;;;;;;5031042;28;20034;-83
2022/05/21 12:23:55;;;;;;;8.68;2.28;;;20.90;99.90;;;;;;5030291;28;20033;-83
2022/05/21 12:26:23;;;;;;;6.57;2.28;;;21.30;99.90;;;;;;5014489;28;20091;-83
2022/05/21 12:29:19;;;;;;;6.95;2.60;;;21.20;99.90;;;;;;5030256;28;20767;-83
2022/05/21 12:31:56;;;;;;;8.60;2.00;;;21.10;99.90;;;;;;5030689;28;20033;-83
2022/05/21 12:34:34;;;;;;;6.03;2.10;;;21.50;99.90;;;;;;5030880;28;20508;-83
2022/05/21 12:37:22;;;;;;;5.63;1.63;;;22.10;99.20;;;;;;5030909;28;20162;-83
2022/05/21 12:40:00;;;;;;;8.65;1.60;;;22.50;99.10;;;;;;5031836;28;20040;-83
2022/05/21 12:42:39;;;;;;;5.18;1.67;;;22.50;97.90;;;;;;5014486;28;20032;-82
2022/05/21 12:45:06;;;;;;;3.90;1.45;;;22.50;97.40;;;;;;5014683;28;20041;-83
2022/05/21 12:47:37;;;;;;;9.63;1.85;;;22.50;96.00;;;;;;5017104;28;20071;-84
2022/05/21 12:50:24;;;;;;;8.18;2.08;;;23.50;97.30;;;;;;5017693;28;20063;-84
2022/05/21 12:52:55;;;;;;;4.03;1.73;;;23.70;94.60;;;;;;5017335;28;20067;-83
2022/05/21 12:55:30;;;;;;;6.10;1.50;;;23.40;94.20;;;;;;5017397;28;20042;-83
2022/05/21 12:58:07;;;;;;;6.35;1.70;;;23.30;94.30;;;;;;5017384;28;20037;-83
2022/05/21 13:00:34;;;;;;;5.30;1.70;;;23.80;92.80;;;;;;5033999;28;20641;-83
2022/05/21 13:03:07;;;;;;;11.07;2.17;;;23.70;92.40;;;;;;5034270;28;20512;-84
2022/05/21 13:05:50;;;;;;;10.07;1.65;;;23.40;92.80;;;;;;5018195;28;20494;-83
2022/05/21 13:08:16;;;;;;;2.65;1.45;;;23.30;93.00;;;;;;5018148;28;20148;-83
2022/05/21 13:11:03;;;;;;;7.25;1.77;;;22.40;92.90;;;;;;5017896;28;20095;-83
2022/05/21 13:13:38;;;;;;;5.47;2.40;;;22.60;93.10;;;;;;5017569;28;20025;-83
2022/05/21 13:16:06;;;;;;;6.88;3.33;;;23.10;92.30;;;;;;5017533;28;20040;-83
2022/05/21 13:19:16;;;;;;;5.55;1.55;;;22.30;91.80;;;;;;5017633;28;20565;-82
2022/05/21 13:22:14;;;;;;;4.30;1.92;;;21.50;92.90;;;;;;5017306;28;20034;-83
2022/05/21 13:25:10;;;;;;;5.05;1.85;;;21.60;93.10;;;;;;5034177;28;20049;-83
2022/05/21 13:27:51;;;;;;;3.53;1.50;;;21.50;93.80;;;;;;5017705;28;20044;-83
2022/05/21 13:30:21;;;;;;;4.13;1.70;;;21.60;92.90;;;;;;5017299;28;20488;-83
2022/05/21 13:32:59;;;;;;;7.10;2.20;;;21.20;92.20;;;;;;5016909;28;20543;-83
2022/05/21 13:35:54;;;;;;;7.05;2.70;;;21.00;93.50;;;;;;5017070;28;20038;-82
2022/05/21 13:38:32;;;;;;;5.88;1.58;;;21.60;94.70;;;;;;5017106;28;20025;-83
2022/05/21 13:41:28;;;;;;;6.40;1.77;;;22.00;94.10;;;;;;5033838;28;20073;-83
2022/05/21 13:43:55;;;;;;;6.20;1.67;;;22.30;94.10;;;;;;5033542;28;20484;-82
2022/05/21 13:46:41;;;;;;;6.32;1.85;;;22.70;92.80;;;;;;5016810;28;20492;-83
2022/05/21 13:49:37;;;;;;;5.25;1.60;;;22.90;92.50;;;;;;5031774;28;20037;-84
2022/05/21 13:52:05;;;;;;;3.08;1.70;;;22.60;92.10;;;;;;5034941;28;20029;-82
2022/05/21 13:54:33;;;;;;;7.38;1.60;;;22.30;92.50;;;;;;5016973;28;20052;-83
2022/05/21 13:57:22;;;;;;;3.50;1.35;;;22.60;93.10;;;;;;5033242;28;20029;-83
2022/05/21 13:59:51;;;;;;;3.67;1.73;;;22.90;91.00;;;;;;5016893;28;20025;-83